Time;durP1;ratioP1;P1;durP2;ratioP2;P2;SDS_P1;SDS_P2;PMS_P1;PMS_P2;Temp;Humidity;BMP_temperature;BMP_pressure;BME280_temperature;BME280_humidity;BME280_pressure;Samples;Min_cycle;Max_cycle;Signal;HPM_P1;HPM_P2
2023/07/31 00:02:19;;;;;;;1.70;0.88;;;;;;;;;;5050206;28;20077;-65
2023/07/31 00:04:46;;;;;;;1.10;0.80;;;;;;;;;;5052001;28;21029;-65
2023/07/31 00:07:13;;;;;;;1.30;0.75;;;;;;;;;;5070706;28;20068;-65
2023/07/31 00:09:39;;;;;;;2.20;1.10;;;;;;;;;;5052420;28;20225;-64
2023/07/31 00:12:11;;;;;;;5.32;2.55;;;;;;;;;;5051070;28;20090;-63
2023/07/31 00:14:38;;;;;;;9.65;4.90;;;;;;;;;;5024657;28;20163;-64
2023/07/31 00:17:06;;;;;;;4.40;2.38;;;;;;;;;;5035075;28;20076;-63
2023/07/31 00:19:32;;;;;;;4.33;1.93;;;;;;;;;;5040189;28;20148;-64
2023/07/31 00:21:59;;;;;;;3.60;1.15;;;;;;;;;;5040646;28;20388;-64
2023/07/31 00:24:26;;;;;;;3.03;1.10;;;;;;;;;;5032846;28;20053;-64
2023/07/31 00:27:02;;;;;;;6.57;1.35;;;;;;;;;;5017709;28;20139;-65
2023/07/31 00:29:30;;;;;;;4.63;1.38;;;;;;;;;;5022286;28;20139;-64
2023/07/31 00:31:57;;;;;;;4.35;1.75;;;;;;;;;;5039270;28;20083;-64
2023/07/31 00:34:24;;;;;;;7.07;1.75;;;;;;;;;;5033032;28;20080;-65
2023/07/31 00:36:50;;;;;;;9.45;2.28;;;;;;;;;;5013156;28;20084;-64
2023/07/31 00:39:22;;;;;;;7.88;2.30;;;;;;;;;;5031922;28;20053;-65
2023/07/31 00:41:48;;;;;;;8.45;2.60;;;;;;;;;;5040310;28;20041;-65
2023/07/31 00:44:16;;;;;;;12.32;2.78;;;;;;;;;;5037360;28;20053;-64
2023/07/31 00:46:46;;;;;;;8.50;2.80;;;;;;;;;;4972474;28;20075;-64
2023/07/31 00:49:13;;;;;;;10.10;3.13;;;;;;;;;;5032207;28;20068;-64
2023/07/31 00:51:42;;;;;;;12.20;3.10;;;;;;;;;;5020661;28;20049;-64
2023/07/31 00:54:10;;;;;;;11.68;3.17;;;;;;;;;;5018726;28;20053;-64
2023/07/31 00:56:37;;;;;;;16.40;3.00;;;;;;;;;;4988994;28;20127;-63
2023/07/31 00:59:04;;;;;;;15.10;3.47;;;;;;;;;;5049963;28;20049;-64
2023/07/31 01:01:31;;;;;;;18.40;3.50;;;;;;;;;;5058466;28;20091;-65
2023/07/31 01:03:59;;;;;;;14.30;4.07;;;;;;;;;;5054909;28;20056;-64
2023/07/31 01:06:31;;;;;;;;;;;;;;;;;;5027505;28;20180;-65
2023/07/31 01:09:03;;;;;;;13.07;3.55;;;;;;;;;;5038603;28;19932;-65
2023/07/31 01:11:39;;;;;;;15.13;3.65;;;;;;;;;;5043127;28;20063;-65
2023/07/31 01:14:06;;;;;;;15.65;3.92;;;;;;;;;;5042885;28;20045;-64
2023/07/31 01:16:35;;;;;;;12.18;3.85;;;;;;;;;;5007786;28;20056;-64
2023/07/31 01:19:11;;;;;;;15.77;4.13;;;;;;;;;;5047606;28;20080;-64
2023/07/31 01:22:00;;;;;;;14.80;3.92;;;;;;;;;;5055895;28;20065;-64
2023/07/31 01:24:31;;;;;;;21.02;4.10;;;;;;;;;;5032343;28;20057;-64
2023/07/31 01:27:10;;;;;;;20.45;3.85;;;;;;;;;;5050018;28;20053;-63
2023/07/31 01:29:46;;;;;;;15.82;4.05;;;;;;;;;;5054463;28;20053;-63
2023/07/31 01:32:15;;;;;;;16.55;4.03;;;;;;;;;;5053419;28;20103;-64
2023/07/31 01:34:43;;;;;;;16.08;4.07;;;;;;;;;;5027258;28;21559;-64
2023/07/31 01:37:14;;;;;;;15.30;3.58;;;;;;;;;;5016292;28;20053;-64
2023/07/31 01:39:41;;;;;;;20.50;4.50;;;;;;;;;;5017409;28;20053;-63
2023/07/31 01:42:09;;;;;;;16.48;4.43;;;;;;;;;;5024175;28;20052;-64
2023/07/31 01:44:40;;;;;;;13.90;3.58;;;;;;;;;;5020781;28;20165;-64
2023/07/31 01:47:09;;;;;;;13.52;3.85;;;;;;;;;;5033117;28;20135;-64
2023/07/31 01:49:36;;;;;;;12.80;4.05;;;;;;;;;;5041966;28;20048;-65
2023/07/31 01:52:08;;;;;;;14.27;4.22;;;;;;;;;;5037438;28;20056;-64
2023/07/31 01:54:36;;;;;;;18.23;6.35;;;;;;;;;;5029309;28;20153;-64
2023/07/31 01:57:03;;;;;;;21.58;3.88;;;;;;;;;;5017360;28;20103;-65
2023/07/31 01:59:31;;;;;;;11.70;3.60;;;;;;;;;;5037836;28;20053;-64
2023/07/31 02:01:58;;;;;;;12.13;3.17;;;;;;;;;;5036997;28;20087;-64
2023/07/31 02:04:25;;;;;;;15.77;3.78;;;;;;;;;;5012592;28;20049;-65
2023/07/31 02:06:51;;;;;;;12.45;3.63;;;;;;;;;;5023370;28;20107;-65
2023/07/31 02:09:18;;;;;;;19.27;4.20;;;;;;;;;;5032164;28;20084;-65
2023/07/31 02:11:45;;;;;;;12.32;3.97;;;;;;;;;;5037715;28;20045;-65
2023/07/31 02:14:11;;;;;;;15.55;3.90;;;;;;;;;;5048435;28;20048;-65
2023/07/31 02:16:39;;;;;;;13.60;3.92;;;;;;;;;;5032026;28;20059;-65
2023/07/31 02:19:06;;;;;;;13.55;3.72;;;;;;;;;;5038088;28;20089;-65
2023/07/31 02:21:33;;;;;;;11.93;3.53;;;;;;;;;;5036622;28;20061;-64
2023/07/31 02:23:59;;;;;;;9.77;3.10;;;;;;;;;;5028053;28;20060;-63
2023/07/31 02:26:26;;;;;;;12.45;2.83;;;;;;;;;;5037608;28;20048;-66
2023/07/31 02:28:53;;;;;;;9.57;3.03;;;;;;;;;;5033512;28;20070;-64
2023/07/31 02:31:19;;;;;;;7.32;2.63;;;;;;;;;;5036842;28;20060;-66
2023/07/31 02:33:47;;;;;;;8.30;2.92;;;;;;;;;;5034120;28;20122;-62
2023/07/31 02:36:14;;;;;;;12.43;3.10;;;;;;;;;;5039805;28;20127;-66
2023/07/31 02:38:41;;;;;;;13.43;3.10;;;;;;;;;;5034924;28;20060;-66
2023/07/31 02:41:08;;;;;;;13.55;3.30;;;;;;;;;;5055062;28;20076;-65
2023/07/31 02:43:34;;;;;;;12.70;3.55;;;;;;;;;;5037872;28;20107;-66
2023/07/31 02:46:01;;;;;;;14.93;2.95;;;;;;;;;;5034828;28;20060;-63
2023/07/31 02:48:29;;;;;;;12.75;3.40;;;;;;;;;;5029672;28;20162;-64
2023/07/31 02:50:57;;;;;;;12.38;3.05;;;;;;;;;;5054064;28;20056;-66
2023/07/31 02:53:24;;;;;;;10.48;3.20;;;;;;;;;;5037820;28;20069;-65
2023/07/31 02:55:50;;;;;;;9.18;3.00;;;;;;;;;;5039806;28;20057;-66
2023/07/31 02:58:18;;;;;;;21.48;4.05;;;;;;;;;;5053401;28;20071;-63
2023/07/31 03:00:44;;;;;;;16.58;3.67;;;;;;;;;;5033877;28;20057;-62
2023/07/31 03:03:13;;;;;;;10.27;3.05;;;;;;;;;;5053384;28;20060;-64
2023/07/31 03:05:40;;;;;;;14.70;3.10;;;;;;;;;;5031728;28;20056;-64
2023/07/31 03:08:08;;;;;;;14.77;3.47;;;;;;;;;;5035692;28;20088;-63
2023/07/31 03:10:35;;;;;;;16.35;3.05;;;;;;;;;;5046096;28;20057;-63
2023/07/31 03:13:02;;;;;;;16.67;3.72;;;;;;;;;;5036598;28;20114;-63
2023/07/31 03:15:28;;;;;;;15.75;4.13;;;;;;;;;;5033031;28;20053;-63
2023/07/31 03:17:55;;;;;;;12.88;3.47;;;;;;;;;;5038664;28;20056;-64
2023/07/31 03:20:22;;;;;;;12.55;3.67;;;;;;;;;;5033960;28;20147;-64
2023/07/31 03:22:48;;;;;;;15.80;3.50;;;;;;;;;;5035101;28;20056;-66
2023/07/31 03:25:17;;;;;;;13.63;3.47;;;;;;;;;;5015878;28;20080;-64
2023/07/31 03:27:43;;;;;;;7.00;2.58;;;;;;;;;;5036490;28;20065;-66
2023/07/31 03:30:11;;;;;;;16.38;3.33;;;;;;;;;;5038098;28;20057;-65
2023/07/31 03:32:37;;;;;;;11.15;3.10;;;;;;;;;;5030642;28;20049;-64
2023/07/31 03:35:05;;;;;;;14.30;3.55;;;;;;;;;;5032980;28;20060;-64
2023/07/31 03:37:34;;;;;;;17.10;3.38;;;;;;;;;;5046115;28;20061;-64
2023/07/31 03:40:01;;;;;;;16.77;3.50;;;;;;;;;;5034879;28;20151;-65
2023/07/31 03:42:29;;;;;;;11.73;3.33;;;;;;;;;;5033993;28;20143;-64
2023/07/31 03:44:55;;;;;;;17.17;3.22;;;;;;;;;;5027709;28;20056;-65
2023/07/31 03:47:22;;;;;;;13.52;3.20;;;;;;;;;;5036848;28;20064;-64
2023/07/31 03:49:49;;;;;;;10.95;2.92;;;;;;;;;;5038751;28;20089;-64
2023/07/31 03:52:16;;;;;;;15.02;3.15;;;;;;;;;;5039742;28;20060;-64
2023/07/31 03:54:44;;;;;;;13.63;3.22;;;;;;;;;;5018897;28;20088;-64
2023/07/31 03:57:12;;;;;;;14.07;3.73;;;;;;;;;;5041127;28;20093;-63
2023/07/31 03:59:40;;;;;;;12.25;3.33;;;;;;;;;;5044426;28;20349;-64
2023/07/31 04:02:07;;;;;;;16.27;3.35;;;;;;;;;;5008303;28;20065;-64
2023/07/31 04:04:34;;;;;;;13.50;3.80;;;;;;;;;;4986137;28;20057;-64
2023/07/31 04:07:00;;;;;;;14.32;3.70;;;;;;;;;;5021178;28;20093;-64
2023/07/31 04:09:27;;;;;;;12.82;3.50;;;;;;;;;;5020053;28;20068;-64
2023/07/31 04:11:54;;;;;;;15.57;3.25;;;;;;;;;;5035791;28;20053;-63
2023/07/31 04:14:21;;;;;;;15.55;3.40;;;;;;;;;;4996102;28;20068;-65
2023/07/31 04:16:50;;;;;;;12.85;2.92;;;;;;;;;;5013816;28;20122;-64
2023/07/31 04:19:17;;;;;;;13.68;4.05;;;;;;;;;;5020052;28;20065;-63
2023/07/31 04:21:44;;;;;;;12.55;3.58;;;;;;;;;;5023910;28;20053;-64
2023/07/31 04:24:10;;;;;;;19.77;3.30;;;;;;;;;;5024887;28;20059;-64
2023/07/31 04:26:37;;;;;;;14.75;4.05;;;;;;;;;;5031689;28;20083;-66
2023/07/31 04:29:04;;;;;;;14.25;4.40;;;;;;;;;;5037985;28;20056;-64
2023/07/31 04:31:30;;;;;;;20.70;3.65;;;;;;;;;;5037667;28;20064;-65
2023/07/31 04:33:59;;;;;;;12.98;3.03;;;;;;;;;;5007833;28;20057;-64
2023/07/31 04:36:27;;;;;;;15.70;3.50;;;;;;;;;;5035823;28;20065;-64
2023/07/31 04:38:54;;;;;;;11.07;3.40;;;;;;;;;;5039973;28;20056;-63
2023/07/31 04:41:21;;;;;;;12.65;3.15;;;;;;;;;;5044696;28;20057;-63
2023/07/31 04:43:48;;;;;;;12.63;3.13;;;;;;;;;;5035493;28;20080;-63
2023/07/31 04:46:15;;;;;;;13.48;3.63;;;;;;;;;;5035867;28;20118;-64
2023/07/31 04:48:41;;;;;;;11.63;2.97;;;;;;;;;;5032413;28;20056;-64
2023/07/31 04:51:11;;;;;;;13.52;3.00;;;;;;;;;;5039732;28;20091;-64
2023/07/31 04:53:38;;;;;;;17.23;3.45;;;;;;;;;;5039300;28;20189;-63
2023/07/31 04:56:05;;;;;;;15.90;3.30;;;;;;;;;;5034239;28;20065;-63
2023/07/31 04:58:31;;;;;;;17.80;5.15;;;;;;;;;;5031720;28;20059;-64
2023/07/31 05:00:58;;;;;;;18.65;4.10;;;;;;;;;;5038330;28;20107;-64
2023/07/31 05:03:25;;;;;;;13.70;3.75;;;;;;;;;;5038837;28;20075;-64
2023/07/31 05:05:52;;;;;;;15.35;3.05;;;;;;;;;;5033095;28;20072;-63
2023/07/31 05:08:20;;;;;;;15.63;3.25;;;;;;;;;;5038283;28;20065;-64
2023/07/31 05:10:48;;;;;;;10.50;2.97;;;;;;;;;;5032348;28;20064;-64
2023/07/31 05:13:15;;;;;;;15.35;3.38;;;;;;;;;;5042273;28;20103;-64
2023/07/31 05:15:45;;;;;;;14.23;3.13;;;;;;;;;;5034767;28;20049;-64
2023/07/31 05:18:11;;;;;;;12.20;3.38;;;;;;;;;;5039896;28;20080;-64
2023/07/31 05:20:38;;;;;;;13.10;3.40;;;;;;;;;;5029618;28;20053;-64
2023/07/31 05:23:05;;;;;;;9.20;3.03;;;;;;;;;;5039231;28;20150;-64
2023/07/31 05:25:33;;;;;;;12.15;2.95;;;;;;;;;;5032695;28;20095;-64
2023/07/31 05:28:00;;;;;;;10.80;3.03;;;;;;;;;;5038777;28;20065;-64
2023/07/31 05:30:26;;;;;;;9.18;3.03;;;;;;;;;;5031262;28;20053;-65
2023/07/31 05:32:53;;;;;;;18.45;6.70;;;;;;;;;;5037951;28;20053;-65
2023/07/31 05:35:20;;;;;;;13.77;3.50;;;;;;;;;;5034627;28;20063;-65
2023/07/31 05:37:47;;;;;;;14.27;3.58;;;;;;;;;;5036956;28;20076;-64
2023/07/31 05:40:16;;;;;;;12.60;3.40;;;;;;;;;;5037863;28;20191;-65
2023/07/31 05:42:44;;;;;;;8.40;3.22;;;;;;;;;;5031008;28;20060;-65
2023/07/31 05:45:12;;;;;;;8.32;2.63;;;;;;;;;;5008759;28;20060;-65
2023/07/31 05:47:39;;;;;;;9.50;3.25;;;;;;;;;;5037772;28;20176;-64
2023/07/31 05:50:11;;;;;;;10.30;3.53;;;;;;;;;;5038706;28;20132;-64
2023/07/31 05:52:38;;;;;;;8.15;3.08;;;;;;;;;;5030934;28;20255;-64
2023/07/31 05:55:08;;;;;;;10.85;2.90;;;;;;;;;;5031783;28;20129;-64
2023/07/31 05:57:34;;;;;;;15.55;3.13;;;;;;;;;;5037532;28;20135;-64
2023/07/31 06:00:06;;;;;;;8.20;2.97;;;;;;;;;;5039093;28;20057;-64
2023/07/31 06:02:36;;;;;;;7.63;2.53;;;;;;;;;;5032005;28;20059;-65
2023/07/31 06:05:05;;;;;;;9.18;2.90;;;;;;;;;;5025055;28;20074;-64
2023/07/31 06:07:32;;;;;;;9.43;2.85;;;;;;;;;;5037678;28;20057;-64
2023/07/31 06:10:03;;;;;;;14.77;3.20;;;;;;;;;;5037404;28;20072;-65
2023/07/31 06:12:29;;;;;;;9.15;2.70;;;;;;;;;;5035714;28;20083;-63
2023/07/31 06:14:56;;;;;;;10.38;2.60;;;;;;;;;;5007339;28;20053;-65
2023/07/31 06:17:25;;;;;;;11.10;2.90;;;;;;;;;;5038306;28;20126;-64
2023/07/31 06:19:53;;;;;;;7.35;2.72;;;;;;;;;;5036958;28;20066;-64
2023/07/31 06:22:30;;;;;;;9.90;2.45;;;;;;;;;;5034837;28;20071;-64
2023/07/31 06:24:57;;;;;;;6.90;2.22;;;;;;;;;;5031879;28;20076;-65
2023/07/31 06:27:24;;;;;;;8.77;2.53;;;;;;;;;;5038211;28;20115;-64
2023/07/31 06:29:51;;;;;;;7.80;2.55;;;;;;;;;;5042959;28;20045;-65
2023/07/31 06:32:18;;;;;;;9.50;2.40;;;;;;;;;;5037318;28;20060;-66
2023/07/31 06:34:47;;;;;;;7.45;2.38;;;;;;;;;;5026752;28;20061;-65
2023/07/31 06:37:14;;;;;;;9.45;2.63;;;;;;;;;;5038206;28;20072;-65
2023/07/31 06:39:40;;;;;;;8.65;2.67;;;;;;;;;;5040340;28;20055;-66
2023/07/31 06:42:09;;;;;;;5.32;1.85;;;;;;;;;;5036977;28;20155;-65
2023/07/31 06:44:36;;;;;;;6.50;2.10;;;;;;;;;;5029830;28;20049;-65
2023/07/31 06:47:02;;;;;;;6.82;2.38;;;;;;;;;;5036539;28;20080;-64
2023/07/31 06:49:29;;;;;;;5.70;2.30;;;;;;;;;;5036013;28;20093;-65
2023/07/31 06:51:57;;;;;;;5.50;2.08;;;;;;;;;;5038071;28;20075;-65
2023/07/31 06:54:24;;;;;;;6.00;2.10;;;;;;;;;;5018753;28;20064;-65
2023/07/31 06:56:51;;;;;;;6.72;2.10;;;;;;;;;;5034222;28;20056;-67
2023/07/31 06:59:18;;;;;;;6.65;1.88;;;;;;;;;;5037801;28;20049;-64
2023/07/31 07:01:45;;;;;;;6.35;1.98;;;;;;;;;;5038672;28;20060;-68
2023/07/31 07:04:12;;;;;;;5.68;1.95;;;;;;;;;;5022260;28;20107;-65
2023/07/31 07:06:41;;;;;;;5.28;1.50;;;;;;;;;;5031291;28;20057;-68
2023/07/31 07:09:09;;;;;;;3.10;1.38;;;;;;;;;;5053371;28;20075;-65
2023/07/31 07:11:37;;;;;;;3.60;1.27;;;;;;;;;;5036666;28;20067;-63
2023/07/31 07:14:04;;;;;;;4.73;1.20;;;;;;;;;;5029217;28;20144;-67
2023/07/31 07:16:31;;;;;;;2.72;1.23;;;;;;;;;;5032393;28;20339;-65
2023/07/31 07:18:57;;;;;;;2.75;1.02;;;;;;;;;;5035785;28;20053;-67
2023/07/31 07:21:26;;;;;;;2.80;1.05;;;;;;;;;;5036734;28;20199;-65
2023/07/31 07:23:52;;;;;;;;;;;;;;;;;;5008347;28;20160;-66
2023/07/31 07:26:21;;;;;;;4.70;1.08;;;;;;;;;;5023325;28;20055;-63
2023/07/31 07:28:48;;;;;;;3.53;1.33;;;;;;;;;;5036386;28;20166;-64
2023/07/31 07:31:15;;;;;;;3.10;1.40;;;;;;;;;;5041067;28;20134;-64
2023/07/31 07:33:42;;;;;;;3.03;1.42;;;;;;;;;;5039162;28;20052;-65
2023/07/31 07:36:09;;;;;;;5.85;2.40;;;;;;;;;;5036499;28;20068;-65
2023/07/31 07:38:37;;;;;;;5.60;2.55;;;;;;;;;;5033510;28;20188;-65
2023/07/31 07:41:03;;;;;;;4.80;1.92;;;;;;;;;;5042794;28;20068;-66
2023/07/31 07:43:31;;;;;;;3.60;1.60;;;;;;;;;;5041475;28;20063;-64
2023/07/31 07:45:58;;;;;;;4.70;1.80;;;;;;;;;;5028770;28;20052;-67
2023/07/31 07:48:26;;;;;;;5.65;1.80;;;;;;;;;;5035481;28;20097;-65
2023/07/31 07:50:52;;;;;;;6.97;3.35;;;;;;;;;;5041942;28;20060;-66
2023/07/31 07:53:19;;;;;;;3.85;1.83;;;;;;;;;;5041538;28;20063;-65
2023/07/31 07:55:47;;;;;;;3.05;1.33;;;;;;;;;;5037972;28;20118;-64
2023/07/31 07:58:14;;;;;;;4.90;1.38;;;;;;;;;;5041272;28;20053;-66
2023/07/31 08:00:42;;;;;;;3.45;1.40;;;;;;;;;;5049451;28;20064;-64
2023/07/31 08:03:09;;;;;;;3.13;1.30;;;;;;;;;;5040561;28;20126;-64
2023/07/31 08:05:36;;;;;;;1.92;1.15;;;;;;;;;;5016564;28;20065;-66
2023/07/31 08:08:03;;;;;;;6.65;1.30;;;;;;;;;;5046303;28;20098;-63
2023/07/31 08:10:29;;;;;;;2.35;1.13;;;;;;;;;;5031931;28;20190;-66
2023/07/31 08:12:56;;;;;;;2.90;1.13;;;;;;;;;;5040219;28;20065;-65
2023/07/31 08:15:23;;;;;;;2.58;1.30;;;;;;;;;;5006969;28;20091;-66
2023/07/31 08:17:51;;;;;;;2.97;1.40;;;;;;;;;;5034555;28;20049;-66
2023/07/31 08:20:20;;;;;;;3.15;1.27;;;;;;;;;;5040180;28;20057;-65
2023/07/31 08:22:47;;;;;;;3.10;1.30;;;;;;;;;;5035837;28;20227;-65
2023/07/31 08:25:14;;;;;;;4.38;1.33;;;;;;;;;;5020962;28;20059;-67
2023/07/31 08:27:44;;;;;;;4.78;1.77;;;;;;;;;;5039632;28;20063;-65
2023/07/31 08:30:13;;;;;;;2.63;1.33;;;;;;;;;;5042010;28;20064;-66
2023/07/31 08:32:40;;;;;;;1.98;1.30;;;;;;;;;;5033489;28;20349;-66
2023/07/31 08:35:09;;;;;;;6.13;2.08;;;;;;;;;;5026715;28;20102;-67
2023/07/31 08:37:35;;;;;;;;;;;;;;;;;;5040979;28;20057;-68
2023/07/31 08:40:02;;;;;;;3.80;1.45;;;;;;;;;;5043585;28;19933;-70
2023/07/31 08:42:29;;;;;;;3.47;1.55;;;;;;;;;;5031683;28;20126;-68
2023/07/31 08:44:57;;;;;;;3.17;1.45;;;;;;;;;;5025778;28;20057;-66
2023/07/31 08:47:25;;;;;;;1.52;1.10;;;;;;;;;;5038775;28;20143;-67
2023/07/31 08:49:53;;;;;;;3.00;1.10;;;;;;;;;;5038657;28;20068;-65
2023/07/31 08:52:23;;;;;;;5.25;1.05;;;;;;;;;;5055895;28;20056;-67
2023/07/31 08:54:50;;;;;;;3.65;1.27;;;;;;;;;;5033570;28;20083;-67
2023/07/31 08:57:18;;;;;;;1.73;1.08;;;;;;;;;;5038438;28;20057;-66
2023/07/31 08:59:46;;;;;;;5.70;1.40;;;;;;;;;;5056702;28;20048;-66
2023/07/31 09:02:17;;;;;;;2.70;1.17;;;;;;;;;;5040697;28;20052;-66
2023/07/31 09:04:45;;;;;;;2.80;1.27;;;;;;;;;;5010310;28;20307;-66
2023/07/31 09:07:14;;;;;;;2.47;1.40;;;;;;;;;;5054695;28;20088;-67
2023/07/31 09:09:58;;;;;;;2.70;1.48;;;;;;;;;;5055828;28;20142;-69
2023/07/31 09:12:36;;;;;;;2.60;1.40;;;;;;;;;;5033542;28;20135;-64
2023/07/31 09:15:07;;;;;;;2.78;1.77;;;;;;;;;;5004201;28;20049;-66
2023/07/31 09:17:34;;;;;;;3.78;2.00;;;;;;;;;;5032468;28;20061;-69
2023/07/31 09:20:14;;;;;;;4.13;2.10;;;;;;;;;;5038912;28;20143;-67
2023/07/31 09:22:42;;;;;;;2.85;1.85;;;;;;;;;;5031906;28;20052;-67
2023/07/31 09:25:21;;;;;;;2.53;1.53;;;;;;;;;;5034944;28;20053;-66
2023/07/31 09:27:50;;;;;;;4.60;1.80;;;;;;;;;;5037922;28;20304;-65
2023/07/31 09:30:20;;;;;;;4.82;2.03;;;;;;;;;;5039235;28;20061;-67
2023/07/31 09:32:52;;;;;;;7.00;2.35;;;;;;;;;;5032719;28;20119;-65
2023/07/31 09:35:22;;;;;;;5.55;2.20;;;;;;;;;;5034912;28;20098;-65
2023/07/31 09:37:51;;;;;;;5.57;2.30;;;;;;;;;;5044134;28;20063;-66
2023/07/31 09:40:30;;;;;;;7.90;2.55;;;;;;;;;;5036977;28;20056;-65
2023/07/31 09:43:01;;;;;;;5.82;2.35;;;;;;;;;;5054714;28;20068;-65
2023/07/31 09:45:28;;;;;;;5.38;2.58;;;;;;;;;;5011867;28;20067;-67
2023/07/31 09:47:58;;;;;;;6.00;3.00;;;;;;;;;;5044012;28;20048;-64
2023/07/31 09:50:25;;;;;;;8.73;3.47;;;;;;;;;;5034973;28;20056;-66
2023/07/31 09:52:53;;;;;;;5.35;3.15;;;;;;;;;;5053579;28;20106;-70
2023/07/31 09:55:20;;;;;;;5.93;2.80;;;;;;;;;;5020224;28;20072;-68
2023/07/31 09:57:50;;;;;;;6.03;3.17;;;;;;;;;;5038294;28;20064;-65
2023/07/31 10:00:25;;;;;;;6.97;3.00;;;;;;;;;;5038573;28;20068;-66
2023/07/31 10:02:52;;;;;;;8.95;3.50;;;;;;;;;;5049745;28;20073;-66
2023/07/31 10:05:20;;;;;;;6.10;2.95;;;;;;;;;;5023761;28;20065;-65
2023/07/31 10:07:54;;;;;;;7.25;3.17;;;;;;;;;;5036630;28;20061;-67
2023/07/31 10:10:24;;;;;;;6.65;3.30;;;;;;;;;;5034346;28;20132;-68
2023/07/31 10:12:53;;;;;;;8.38;3.17;;;;;;;;;;5033756;28;20106;-67
2023/07/31 10:15:21;;;;;;;7.40;3.25;;;;;;;;;;4995300;28;20134;-64
2023/07/31 10:17:49;;;;;;;5.78;3.47;;;;;;;;;;5023441;28;20283;-68
2023/07/31 10:20:19;;;;;;;6.85;3.42;;;;;;;;;;5038241;28;20123;-65
2023/07/31 10:22:48;;;;;;;5.45;3.15;;;;;;;;;;5033826;28;20041;-65
2023/07/31 10:25:16;;;;;;;11.45;4.35;;;;;;;;;;5032159;28;20057;-64
2023/07/31 10:27:46;;;;;;;7.88;3.67;;;;;;;;;;5036273;28;20148;-68
2023/07/31 10:30:18;;;;;;;6.22;3.28;;;;;;;;;;5036625;28;20060;-67
2023/07/31 10:32:48;;;;;;;7.30;3.33;;;;;;;;;;5034836;28;20056;-65
2023/07/31 10:35:16;;;;;;;8.05;3.38;;;;;;;;;;5031898;28;20052;-67
2023/07/31 10:37:44;;;;;;;11.02;3.65;;;;;;;;;;5036972;28;20056;-65
2023/07/31 10:40:12;;;;;;;9.07;3.47;;;;;;;;;;5033223;28;20052;-67
2023/07/31 10:42:48;;;;;;;6.88;3.25;;;;;;;;;;5027840;28;20053;-68
2023/07/31 10:45:28;;;;;;;9.15;3.28;;;;;;;;;;5008677;28;20125;-66
2023/07/31 10:48:00;;;;;;;10.20;3.83;;;;;;;;;;5021314;28;20059;-70
2023/07/31 10:50:28;;;;;;;8.40;3.92;;;;;;;;;;5033362;28;20057;-67
2023/07/31 10:52:57;;;;;;;6.47;3.08;;;;;;;;;;5036704;28;20063;-66
2023/07/31 10:55:32;;;;;;;8.50;4.03;;;;;;;;;;5048203;28;20052;-66
2023/07/31 10:58:06;;;;;;;5.47;2.95;;;;;;;;;;5037256;28;20056;-67
2023/07/31 11:00:37;;;;;;;7.55;3.65;;;;;;;;;;5031103;28;20063;-67
2023/07/31 11:03:06;;;;;;;10.70;3.67;;;;;;;;;;5037991;28;20075;-67
2023/07/31 11:05:53;;;;;;;10.82;3.25;;;;;;;;;;5031110;28;20056;-67
2023/07/31 11:08:22;;;;;;;7.60;3.20;;;;;;;;;;5034355;28;20053;-69
2023/07/31 11:11:06;;;;;;;8.90;2.80;;;;;;;;;;5037568;28;20125;-67
2023/07/31 11:13:34;;;;;;;6.72;3.35;;;;;;;;;;5022816;28;20055;-68
2023/07/31 11:16:03;;;;;;;8.30;2.63;;;;;;;;;;5018883;28;20053;-65
2023/07/31 11:18:29;;;;;;;8.48;3.25;;;;;;;;;;5030501;28;20052;-67
2023/07/31 11:20:56;;;;;;;6.15;2.85;;;;;;;;;;5036031;28;20069;-65
2023/07/31 11:23:24;;;;;;;8.02;2.72;;;;;;;;;;5036575;28;20057;-65
2023/07/31 11:25:51;;;;;;;8.15;3.13;;;;;;;;;;5023594;28;20089;-66
2023/07/31 11:28:19;;;;;;;7.68;3.50;;;;;;;;;;5036776;28;20115;-68
2023/07/31 11:30:49;;;;;;;5.97;2.95;;;;;;;;;;5029294;28;20052;-66
2023/07/31 11:33:17;;;;;;;7.32;3.53;;;;;;;;;;5036172;28;20053;-65
2023/07/31 11:35:47;;;;;;;7.68;3.10;;;;;;;;;;5030563;28;20041;-69
2023/07/31 11:38:23;;;;;;;7.40;3.28;;;;;;;;;;5036065;28;20146;-67
2023/07/31 11:40:50;;;;;;;7.45;2.90;;;;;;;;;;5047018;28;20081;-67
2023/07/31 11:43:19;;;;;;;6.07;2.65;;;;;;;;;;5052302;28;20061;-66
2023/07/31 11:45:50;;;;;;;5.07;2.63;;;;;;;;;;4997520;28;20059;-65
2023/07/31 11:48:23;;;;;;;5.22;2.50;;;;;;;;;;5036024;28;20122;-66
2023/07/31 11:50:51;;;;;;;5.97;2.70;;;;;;;;;;5033663;28;20126;-68
2023/07/31 11:53:19;;;;;;;;;;;;;;;;;;5036947;28;20061;-66
2023/07/31 11:55:47;;;;;;;5.45;2.42;;;;;;;;;;5010600;28;19924;-65
2023/07/31 11:58:22;;;;;;;5.45;2.53;;;;;;;;;;5035829;28;20168;-66
2023/07/31 12:00:52;;;;;;;7.50;2.10;;;;;;;;;;5035863;28;20053;-67
2023/07/31 12:03:19;;;;;;;4.93;2.38;;;;;;;;;;5035893;28;20342;-65
2023/07/31 12:05:49;;;;;;;4.72;2.28;;;;;;;;;;5023772;28;20052;-66
2023/07/31 12:08:16;;;;;;;3.67;2.10;;;;;;;;;;5040935;28;20091;-66
2023/07/31 12:10:45;;;;;;;4.47;1.85;;;;;;;;;;5034326;28;20083;-66
2023/07/31 12:13:20;;;;;;;2.63;1.60;;;;;;;;;;5024000;28;20057;-64
2023/07/31 12:15:55;;;;;;;3.90;1.77;;;;;;;;;;4986978;28;20049;-66
2023/07/31 12:18:22;;;;;;;5.03;2.08;;;;;;;;;;5017610;28;20061;-65
2023/07/31 12:20:55;;;;;;;5.43;2.40;;;;;;;;;;5017166;28;20061;-65
2023/07/31 12:23:27;;;;;;;3.55;1.98;;;;;;;;;;5021642;28;20065;-66
2023/07/31 12:26:01;;;;;;;9.18;2.50;;;;;;;;;;5006802;28;20350;-67
2023/07/31 12:28:30;;;;;;;5.47;2.17;;;;;;;;;;5031122;28;20053;-66
2023/07/31 12:31:01;;;;;;;5.22;2.30;;;;;;;;;;5019354;28;20119;-66
2023/07/31 12:33:33;;;;;;;6.63;2.38;;;;;;;;;;5021116;28;20085;-65
2023/07/31 12:36:01;;;;;;;4.15;2.40;;;;;;;;;;5023897;28;20102;-66
2023/07/31 12:38:28;;;;;;;6.80;2.63;;;;;;;;;;5012475;28;20133;-65
2023/07/31 12:40:55;;;;;;;5.97;2.50;;;;;;;;;;5025422;28;20103;-64
2023/07/31 12:43:22;;;;;;;4.68;2.30;;;;;;;;;;5034919;28;20144;-64
2023/07/31 12:45:49;;;;;;;6.82;2.95;;;;;;;;;;5007657;28;20052;-64
2023/07/31 12:48:16;;;;;;;7.07;2.88;;;;;;;;;;5044604;28;20061;-63
2023/07/31 12:50:42;;;;;;;6.25;2.97;;;;;;;;;;5032751;28;20060;-63
2023/07/31 12:53:11;;;;;;;8.57;3.00;;;;;;;;;;5038280;28;20190;-64
2023/07/31 12:55:37;;;;;;;6.50;2.75;;;;;;;;;;4982201;28;20049;-65
2023/07/31 12:58:04;;;;;;;6.55;2.78;;;;;;;;;;5019474;28;20065;-66
2023/07/31 13:00:33;;;;;;;6.78;2.88;;;;;;;;;;5018016;28;20057;-65
2023/07/31 13:03:01;;;;;;;9.68;3.22;;;;;;;;;;5018532;28;20267;-65
2023/07/31 13:05:28;;;;;;;5.95;2.92;;;;;;;;;;5010842;28;20049;-65
2023/07/31 13:07:55;;;;;;;8.70;3.17;;;;;;;;;;5030520;28;20053;-64
2023/07/31 13:10:28;;;;;;;8.60;3.15;;;;;;;;;;5040679;28;20053;-64
2023/07/31 13:12:55;;;;;;;7.47;3.55;;;;;;;;;;5038099;28;20061;-64
2023/07/31 13:15:22;;;;;;;9.60;3.95;;;;;;;;;;5016715;28;20059;-64
2023/07/31 13:17:48;;;;;;;5.88;3.35;;;;;;;;;;5038740;28;20346;-64
2023/07/31 13:20:17;;;;;;;6.90;3.28;;;;;;;;;;5038162;28;20057;-63
2023/07/31 13:22:47;;;;;;;5.43;2.95;;;;;;;;;;5038060;28;21430;-64
2023/07/31 13:25:14;;;;;;;6.60;3.25;;;;;;;;;;5024236;28;20057;-64
2023/07/31 13:27:42;;;;;;;8.63;3.13;;;;;;;;;;5039330;28;20084;-64
2023/07/31 13:30:09;;;;;;;9.95;5.60;;;;;;;;;;5039668;28;20141;-64
2023/07/31 13:32:38;;;;;;;10.07;5.03;;;;;;;;;;5027434;28;20065;-64
2023/07/31 13:35:05;;;;;;;;;;;;;;;;;;5033610;28;20144;-64
2023/07/31 13:37:32;;;;;;;7.78;3.17;;;;;;;;;;5038297;28;19924;-64
2023/07/31 13:39:59;;;;;;;6.35;2.88;;;;;;;;;;5038776;28;20149;-64
2023/07/31 13:42:25;;;;;;;6.43;2.88;;;;;;;;;;5034961;28;20080;-66
2023/07/31 13:44:56;;;;;;;6.18;2.78;;;;;;;;;;5023312;28;20056;-65
2023/07/31 13:47:22;;;;;;;5.85;2.72;;;;;;;;;;5037661;28;20191;-64
2023/07/31 13:49:49;;;;;;;8.10;3.05;;;;;;;;;;5036915;28;20481;-65
2023/07/31 13:52:16;;;;;;;6.95;2.97;;;;;;;;;;5039960;28;20061;-65
2023/07/31 13:54:43;;;;;;;4.68;2.35;;;;;;;;;;5018217;28;20069;-63
2023/07/31 13:57:10;;;;;;;5.75;3.10;;;;;;;;;;5038130;28;20064;-64
2023/07/31 13:59:37;;;;;;;9.18;3.20;;;;;;;;;;5036250;28;20123;-66
2023/07/31 14:02:05;;;;;;;13.02;5.03;;;;;;;;;;5037678;28;20068;-64
2023/07/31 14:04:32;;;;;;;8.05;3.47;;;;;;;;;;5018834;28;20064;-67
2023/07/31 14:06:59;;;;;;;7.20;3.25;;;;;;;;;;5036437;28;20119;-64
2023/07/31 14:09:27;;;;;;;8.00;3.38;;;;;;;;;;5037652;28;20052;-64
2023/07/31 14:11:54;;;;;;;6.40;3.30;;;;;;;;;;5037303;28;20072;-64
2023/07/31 14:14:20;;;;;;;6.25;3.10;;;;;;;;;;5033958;28;20091;-64
2023/07/31 14:16:50;;;;;;;8.20;3.50;;;;;;;;;;5019759;28;20202;-65
2023/07/31 14:19:18;;;;;;;8.32;3.40;;;;;;;;;;5041927;28;20056;-65
2023/07/31 14:21:45;;;;;;;7.88;3.25;;;;;;;;;;5039956;28;20052;-66
2023/07/31 14:24:12;;;;;;;7.72;3.55;;;;;;;;;;5037586;28;20064;-64
2023/07/31 14:26:38;;;;;;;8.15;3.08;;;;;;;;;;5026562;28;20073;-64
2023/07/31 14:29:05;;;;;;;9.32;3.20;;;;;;;;;;5052785;28;20056;-65
2023/07/31 14:31:32;;;;;;;6.88;2.97;;;;;;;;;;5019520;28;20053;-67
2023/07/31 14:33:59;;;;;;;7.25;3.50;;;;;;;;;;5017127;28;20054;-66
2023/07/31 14:36:27;;;;;;;4.90;2.50;;;;;;;;;;4994883;28;20056;-67
2023/07/31 14:38:54;;;;;;;5.97;2.47;;;;;;;;;;5038477;28;20065;-61
2023/07/31 14:41:21;;;;;;;6.82;2.80;;;;;;;;;;5037037;28;20149;-65
2023/07/31 14:43:48;;;;;;;4.97;2.40;;;;;;;;;;5036357;28;20052;-66
2023/07/31 14:46:14;;;;;;;7.57;2.72;;;;;;;;;;4990745;28;20119;-65
2023/07/31 14:48:41;;;;;;;8.00;2.75;;;;;;;;;;5034046;28;20168;-64